Time;durP1;ratioP1;P1;durP2;ratioP2;P2;SDS_P1;SDS_P2;PMS_P1;PMS_P2;Temp;Humidity;BMP_temperature;BMP_pressure;BME280_temperature;BME280_humidity;BME280_pressure;Samples;Min_cycle;Max_cycle;Signal;HPM_P1;HPM_P2
2022/05/24 00:00:29;;;;;;;4.45;1.50;;;16.90;85.30;;;16.03;97.48;95038.97;4960166;28;20273;-62
2022/05/24 00:02:55;;;;;;;5.10;1.65;;;16.90;85.20;;;16.02;97.06;95045.31;4945974;28;20048;-63
2022/05/24 00:05:22;;;;;;;5.57;1.42;;;16.90;85.00;;;16.00;96.29;95042.09;4956390;28;20357;-63
2022/05/24 00:07:48;;;;;;;6.80;1.60;;;16.90;85.20;;;15.99;96.68;95041.31;4961739;28;20068;-63
2022/05/24 00:10:27;;;;;;;3.65;1.77;;;16.90;85.20;;;15.98;97.03;95038.91;4945576;28;20449;-63
2022/05/24 00:12:53;;;;;;;4.88;1.40;;;16.80;85.30;;;15.95;97.47;95044.72;4962124;28;20029;-64
2022/05/24 00:15:20;;;;;;;5.03;1.70;;;16.90;85.60;;;15.93;96.97;95043.09;4964979;28;20475;-63
2022/05/24 00:18:00;;;;;;;3.85;1.60;;;16.90;85.40;;;15.95;98.50;95039.41;4964171;28;20030;-63
2022/05/24 00:20:40;;;;;;;3.70;1.50;;;17.00;85.40;;;15.92;98.13;95044.16;4954251;28;20099;-63
2022/05/24 00:23:06;;;;;;;4.93;1.80;;;16.80;85.50;;;15.89;97.12;95042.00;4962975;28;20552;-63
2022/05/24 00:25:35;;;;;;;3.38;1.60;;;16.80;85.80;;;15.86;98.00;95049.66;4956323;28;20064;-62
2022/05/24 00:28:01;;;;;;;4.53;1.58;;;16.80;86.00;;;15.88;98.66;95051.00;4957885;28;20145;-62
2022/05/24 00:30:27;;;;;;;4.65;2.05;;;16.90;85.90;;;15.88;98.54;95045.72;4953042;28;20042;-62
2022/05/24 00:32:52;;;;;;;4.45;1.98;;;16.90;85.90;;;15.89;98.79;95047.31;4963295;28;20339;-62
2022/05/24 00:35:19;;;;;;;3.42;1.65;;;17.00;85.90;;;15.90;99.03;95043.59;4961997;28;20452;-62
2022/05/24 00:37:45;;;;;;;3.78;1.67;;;17.00;85.80;;;15.93;98.39;95048.41;4972285;28;20136;-62
2022/05/24 00:40:35;;;;;;;2.90;1.80;;;17.00;85.50;;;15.92;99.83;95044.16;4951904;28;20145;-62
2022/05/24 00:43:08;;;;;;;4.90;1.80;;;16.90;85.90;;;15.88;99.65;95040.41;4959074;28;20033;-62
2022/05/24 00:45:46;;;;;;;3.85;1.65;;;16.80;86.00;;;15.86;99.70;95039.84;4946807;28;20529;-62
2022/05/24 00:48:38;;;;;;;3.05;1.73;;;16.80;86.30;;;15.85;100.00;95040.09;4956283;28;20033;-62
2022/05/24 00:51:07;;;;;;;4.03;1.67;;;16.90;86.30;;;15.85;100.00;95040.91;4942760;28;20627;-61
2022/05/24 00:53:37;;;;;;;5.30;1.88;;;16.90;86.20;;;15.86;99.55;95042.50;4959898;28;20099;-62
2022/05/24 00:56:38;;;;;;;3.50;1.53;;;17.00;86.10;;;15.87;100.00;95044.09;4960598;28;20055;-62
2022/05/24 00:59:06;;;;;;;3.85;2.15;;;16.90;86.10;;;15.87;100.00;95036.16;4931234;28;20284;-62
2022/05/24 01:01:43;;;;;;;5.35;1.90;;;16.90;86.10;;;15.88;100.00;95044.91;4972048;28;20119;-62
2022/05/24 01:04:13;;;;;;;4.35;1.92;;;16.90;86.10;;;15.88;100.00;95032.44;4939193;28;20033;-62
2022/05/24 01:06:39;;;;;;;4.25;1.70;;;16.90;86.10;;;15.88;99.91;95045.72;4954299;28;20040;-62
2022/05/24 01:09:09;;;;;;;6.38;2.20;;;16.90;86.30;;;15.87;99.99;95041.47;4962758;28;20045;-62
2022/05/24 01:11:41;;;;;;;4.10;1.90;;;16.80;86.40;;;15.85;100.00;95038.25;4948832;28;20045;-62
2022/05/24 01:14:07;;;;;;;3.88;2.03;;;16.90;86.60;;;15.84;100.00;95034.00;4943557;28;20038;-62
2022/05/24 01:16:34;;;;;;;8.18;2.30;;;16.80;86.60;;;15.83;100.00;95042.16;4957050;28;20053;-63
2022/05/24 01:19:04;;;;;;;4.90;1.92;;;16.80;86.70;;;15.82;100.00;95038.72;4941481;28;20064;-62
2022/05/24 01:21:31;;;;;;;4.82;1.90;;;16.80;86.60;;;15.78;100.00;95050.06;4963278;28;20033;-62
2022/05/24 01:24:20;;;;;;;5.00;2.10;;;16.70;86.70;;;15.78;100.00;95044.78;4960597;28;20033;-61
2022/05/24 01:26:52;;;;;;;4.70;2.08;;;16.70;86.40;;;15.74;100.00;95041.81;4964066;28;20116;-61
2022/05/24 01:29:20;;;;;;;5.63;2.50;;;16.60;87.00;;;15.70;100.00;95043.38;4960000;28;20037;-62
2022/05/24 01:37:16;;;;;;;4.38;2.50;;;16.60;87.10;;;15.63;100.00;95031.34;4956833;28;20398;-62
2022/05/24 01:39:43;;;;;;;4.32;2.28;;;16.60;86.80;;;15.65;100.00;95039.84;4968660;28;20449;-62
2022/05/24 01:42:09;;;;;;;3.22;2.08;;;16.60;86.80;;;15.61;100.00;95035.06;4945693;28;20030;-62
2022/05/24 01:44:43;;;;;;;2.97;1.98;;;16.60;86.70;;;15.61;100.00;95028.91;4967988;28;20331;-65
2022/05/24 01:47:08;;;;;;;3.15;1.85;;;16.60;86.40;;;15.59;100.00;95026.50;4949384;28;20110;-62
2022/05/24 01:49:38;;;;;;;5.53;2.60;;;16.60;86.30;;;15.61;100.00;95031.56;4960238;28;20044;-61
2022/05/24 01:52:13;;;;;;;5.97;2.40;;;16.60;86.20;;;15.60;100.00;95033.41;4965123;28;20073;-63
2022/05/24 01:54:45;;;;;;;3.72;2.20;;;16.60;86.30;;;15.61;100.00;95036.88;4960553;28;20080;-62
2022/05/24 01:57:23;;;;;;;4.65;2.40;;;16.60;86.20;;;15.58;100.00;95035.50;4959406;28;20051;-62
2022/05/24 01:59:50;;;;;;;3.72;2.20;;;16.60;86.20;;;15.58;100.00;95034.69;4948121;28;20128;-61
2022/05/24 02:02:15;;;;;;;5.30;2.08;;;16.60;86.20;;;15.56;100.00;95042.09;4963979;28;20332;-62
2022/05/24 02:04:41;;;;;;;4.95;2.70;;;16.60;86.20;;;15.55;100.00;95040.47;4944403;28;20211;-62
2022/05/24 02:07:14;;;;;;;10.60;2.38;;;16.60;86.10;;;15.56;100.00;95037.59;4959904;28;20362;-62
2022/05/24 02:09:44;;;;;;;5.40;2.50;;;16.60;86.40;;;15.55;100.00;95028.03;4966283;28;20037;-62
2022/05/24 02:12:17;;;;;;;5.07;2.47;;;16.60;86.10;;;15.54;100.00;95030.94;4956304;28;20068;-62
2022/05/24 02:14:47;;;;;;;4.45;2.35;;;16.60;86.10;;;15.55;100.00;95029.88;4947655;28;20556;-64
2022/05/24 02:17:28;;;;;;;6.32;2.90;;;16.60;86.10;;;15.57;100.00;95022.47;4965345;28;20152;-62
2022/05/24 02:19:56;;;;;;;5.18;2.40;;;16.60;85.90;;;15.57;100.00;95033.09;4965317;28;20040;-62
2022/05/24 02:22:24;;;;;;;4.03;2.25;;;16.60;86.00;;;15.57;100.00;95031.22;4933646;28;20667;-62
2022/05/24 02:25:01;;;;;;;3.80;2.25;;;16.60;85.80;;;15.54;100.00;95029.06;4941305;28;20038;-62
2022/05/24 02:27:27;;;;;;;6.05;2.30;;;16.60;85.90;;;15.52;99.84;95020.56;4941075;28;20117;-62
2022/05/24 02:29:53;;;;;;;4.32;2.22;;;16.50;86.00;;;15.52;100.00;95014.47;4963954;28;20342;-62
2022/05/24 02:32:19;;;;;;;4.60;2.33;;;16.60;85.90;;;15.49;100.00;95007.03;4964662;28;20100;-63
2022/05/24 02:34:44;;;;;;;4.68;2.05;;;16.50;86.10;;;15.52;100.00;94998.56;4964658;28;20045;-62
2022/05/24 02:37:11;;;;;;;6.25;2.30;;;16.60;86.00;;;15.50;100.00;94988.22;4965854;28;20433;-62
2022/05/24 02:41:28;;;;;;;3.90;2.45;;;16.60;85.90;;;15.52;100.00;94987.97;4944384;28;20331;-62
2022/05/24 02:42:22;;;;;;;6.72;2.13;;;16.60;85.90;;;15.51;99.61;94996.97;4961279;28;20488;-62
2022/05/24 02:44:49;;;;;;;4.85;2.25;;;16.60;85.80;;;15.51;100.00;95002.28;4949366;28;20909;-62
2022/05/24 02:47:15;;;;;;;8.80;2.53;;;16.60;85.90;;;15.48;100.00;95002.75;4956512;28;20580;-62
2022/05/24 02:49:41;;;;;;;8.95;2.40;;;16.50;86.00;;;15.48;100.00;95002.75;4963692;28;20056;-62
2022/05/24 02:52:07;;;;;;;6.13;2.70;;;16.50;86.10;;;15.44;100.00;94996.34;4964135;28;20203;-60
2022/05/24 02:54:36;;;;;;;3.95;2.53;;;16.50;86.10;;;15.41;100.00;95002.94;4967762;28;20060;-61
2022/05/24 02:57:04;;;;;;;4.13;2.10;;;16.40;86.30;;;15.39;100.00;95009.50;4965158;28;20400;-60
2022/05/24 02:59:31;;;;;;;4.85;2.40;;;16.40;86.60;;;15.39;100.00;95001.56;4954014;28;20053;-60
2022/05/24 03:01:57;;;;;;;5.35;2.47;;;16.50;86.60;;;15.39;100.00;94997.09;4963441;28;20029;-61
2022/05/24 03:04:23;;;;;;;4.13;2.65;;;16.50;86.40;;;15.39;100.00;94998.91;4967698;28;20091;-60
2022/05/24 03:09:36;;;;;;;6.20;2.47;;;16.50;86.20;;;15.39;100.00;95004.22;4963020;28;20299;-60
2022/05/24 03:14:52;;;;;;;4.07;2.35;;;16.50;86.20;;;15.37;100.00;94998.38;4954991;28;20346;-61
2022/05/24 03:17:19;;;;;;;3.90;2.30;;;16.50;86.10;;;15.39;100.00;95005.06;4956098;28;20211;-61
2022/05/24 03:19:46;;;;;;;6.22;2.55;;;16.50;86.10;;;15.40;100.00;95008.50;4920776;28;20346;-61
2022/05/24 03:22:13;;;;;;;6.57;2.40;;;16.50;86.10;;;15.40;100.00;95008.50;4879321;28;20459;-61
2022/05/24 03:24:39;;;;;;;5.47;2.30;;;16.60;86.10;;;15.41;100.00;95000.31;4894939;28;20342;-61
2022/05/24 03:27:11;;;;;;;8.80;4.18;;;16.60;86.00;;;15.43;100.00;95002.72;4903719;28;20538;-60
2022/05/24 03:29:38;;;;;;;5.00;3.33;;;16.60;86.10;;;15.46;100.00;95004.84;4908404;28;20707;-61
2022/05/24 03:32:06;;;;;;;5.32;2.58;;;16.60;85.80;;;15.48;100.00;95014.16;4903348;28;20378;-61
2022/05/24 03:34:34;;;;;;;3.38;2.22;;;16.60;85.60;;;15.48;100.00;95013.38;4854557;28;20508;-61
2022/05/24 03:36:59;;;;;;;4.97;2.25;;;16.60;85.60;;;15.46;100.00;95015.47;4875283;28;20296;-61
2022/05/24 03:39:26;;;;;;;3.95;2.00;;;16.60;85.70;;;15.44;100.00;95017.56;4892833;28;20235;-61
2022/05/24 03:41:52;;;;;;;4.30;2.45;;;16.50;85.90;;;15.47;100.00;95017.06;4920684;28;20476;-61
2022/05/24 03:44:17;;;;;;;4.72;2.65;;;16.60;85.80;;;15.50;100.00;95020.03;4902415;28;20764;-61
2022/05/24 03:46:44;;;;;;;5.90;2.50;;;16.70;85.90;;;15.57;100.00;95011.88;4900671;28;20437;-61
2022/05/24 03:49:10;;;;;;;3.58;2.25;;;16.80;85.70;;;15.60;100.00;95011.41;4904763;28;20460;-61
2022/05/24 03:51:36;;;;;;;5.38;2.40;;;16.80;85.30;;;15.60;100.00;95011.41;4918071;28;20481;-62
2022/05/24 03:54:02;;;;;;;4.88;2.50;;;16.80;85.30;;;15.64;100.00;95001.94;4909737;28;20371;-62
2022/05/24 03:56:28;;;;;;;6.97;2.60;;;16.90;85.10;;;15.68;100.00;94997.75;4922958;28;20596;-61
2022/05/24 03:58:55;;;;;;;5.70;2.40;;;17.00;85.20;;;15.71;100.00;95012.34;4891978;28;20596;-64
2022/05/24 04:01:21;;;;;;;6.10;2.72;;;17.00;84.90;;;15.72;99.98;95014.75;4891002;28;20343;-66
2022/05/24 04:03:46;;;;;;;4.88;2.20;;;17.00;84.60;;;15.75;100.00;95014.25;4902895;28;20332;-65
2022/05/24 04:06:14;;;;;;;5.65;2.50;;;17.10;84.60;;;15.79;100.00;95020.66;4909590;28;20210;-67
2022/05/24 04:08:41;;;;;;;4.50;2.10;;;17.20;84.80;;;15.81;100.00;95018.56;4884624;28;20445;-64
2022/05/24 04:11:09;;;;;;;4.82;2.45;;;17.10;84.60;;;15.81;100.00;95018.56;4932235;28;20671;-64
2022/05/24 04:13:37;;;;;;;5.35;2.30;;;17.10;84.30;;;15.84;100.00;95018.09;4920207;28;20275;-65
2022/05/24 04:16:04;;;;;;;4.93;2.28;;;17.20;84.30;;;15.88;99.65;95013.09;4898054;28;20056;-62
2022/05/24 04:18:30;;;;;;;4.15;2.42;;;17.20;84.30;;;15.92;100.00;95016.84;4906976;28;20198;-62
2022/05/24 04:20:56;;;;;;;4.47;2.30;;;17.30;84.60;;;15.93;100.00;95021.91;4911983;28;20362;-61
2022/05/24 04:23:23;;;;;;;7.18;2.35;;;17.30;84.50;;;15.96;100.00;95025.09;4868488;28;20355;-62
2022/05/24 04:25:50;;;;;;;3.38;2.13;;;17.30;84.00;;;15.92;99.33;95020.28;4871873;28;20307;-62
2022/05/24 04:28:18;;;;;;;4.13;2.50;;;17.10;83.90;;;15.90;99.97;95022.41;4895620;28;20346;-61
2022/05/24 04:30:49;;;;;;;4.32;2.60;;;17.20;84.30;;;15.90;99.24;95019.75;4905896;28;20572;-61
2022/05/24 04:33:15;;;;;;;6.65;3.30;;;17.10;84.20;;;15.89;99.77;95026.09;4902847;28;20786;-61
2022/05/24 04:35:42;;;;;;;4.25;2.40;;;17.10;84.30;;;15.91;99.44;95034.59;4885185;28;20501;-61
2022/05/24 04:38:08;;;;;;;4.93;2.30;;;17.20;84.20;;;15.94;100.00;95028.00;4902697;28;20350;-62
2022/05/24 04:43:19;;;;;;;3.30;1.70;;;17.20;84.30;;;15.98;100.00;95033.59;4897887;28;20983;-61
2022/05/24 04:45:45;;;;;;;3.53;2.00;;;17.30;84.40;;;15.99;99.27;95035.19;4894557;28;20239;-62
2022/05/24 04:48:11;;;;;;;4.78;2.28;;;17.20;84.10;;;16.02;99.90;95040.81;4886109;28;20287;-61
2022/05/24 04:50:37;;;;;;;4.68;2.63;;;17.40;84.30;;;16.03;99.54;95039.75;4902191;28;20543;-61
2022/05/24 04:53:03;;;;;;;7.55;2.78;;;17.40;84.20;;;16.05;100.00;95050.13;4903860;28;20342;-61
2022/05/24 04:55:29;;;;;;;5.03;2.60;;;17.40;84.30;;;16.06;99.37;95051.72;4901237;28;20532;-61
2022/05/24 04:57:56;;;;;;;6.78;2.92;;;17.30;84.30;;;16.03;100.00;95053.03;4882354;28;20513;-61
2022/05/24 05:00:23;;;;;;;4.45;2.60;;;17.20;84.40;;;15.99;99.20;95043.97;4897674;28;20318;-61
2022/05/24 05:02:50;;;;;;;4.43;2.47;;;17.20;84.60;;;15.98;100.00;95049.50;4884444;28;20368;-61
2022/05/24 05:05:16;;;;;;;4.55;2.40;;;17.20;85.00;;;15.97;100.00;95050.56;4913383;28;20445;-61
2022/05/24 05:07:42;;;;;;;6.07;2.75;;;17.30;85.00;;;15.96;100.00;95041.81;4883464;28;20176;-61
2022/05/24 05:10:10;;;;;;;5.05;2.60;;;17.20;85.00;;;15.97;99.95;95046.06;4907324;28;20331;-61
2022/05/24 05:12:36;;;;;;;6.35;2.90;;;17.20;84.90;;;15.95;100.00;95039.41;4897675;28;20360;-61
2022/05/24 05:15:04;;;;;;;5.75;2.92;;;17.20;84.90;;;15.96;100.00;95041.00;4915545;28;20378;-61
2022/05/24 05:17:30;;;;;;;6.15;3.20;;;17.20;84.80;;;15.96;100.00;95044.47;4915551;28;20565;-61
2022/05/24 05:19:59;;;;;;;6.38;2.65;;;17.20;84.90;;;15.98;100.00;95044.22;4885622;28;20348;-61
2022/05/24 05:22:25;;;;;;;3.72;2.50;;;17.30;85.10;;;15.97;100.00;95047.91;4910621;28;20380;-62
2022/05/24 05:24:51;;;;;;;6.07;2.92;;;17.20;84.80;;;15.95;100.00;95057.97;4918870;28;20490;-63
2022/05/24 05:27:19;;;;;;;3.50;2.40;;;17.10;85.20;;;15.90;100.00;95056.88;4887059;28;20699;-62
2022/05/24 05:32:32;;;;;;;4.03;2.70;;;17.10;85.20;;;15.82;100.00;95059.94;4900532;28;20351;-62
2022/05/24 05:34:58;;;;;;;4.97;2.78;;;17.00;85.40;;;15.82;100.00;95062.59;4891414;28;20446;-64
2022/05/24 05:37:28;;;;;;;7.53;2.72;;;17.00;85.40;;;15.81;100.00;95058.34;4882845;28;20823;-63
2022/05/24 05:39:54;;;;;;;4.35;2.55;;;17.00;85.20;;;15.80;100.00;95058.59;4884654;28;20391;-63
2022/05/24 05:42:20;;;;;;;3.67;2.28;;;17.10;85.10;;;15.80;100.00;95055.94;4883338;28;20427;-64
2022/05/24 05:44:49;;;;;;;5.68;2.33;;;17.10;84.90;;;15.78;100.00;95058.03;4898029;28;20382;-64
2022/05/24 05:47:16;;;;;;;4.60;2.55;;;17.00;84.80;;;15.76;100.00;95066.22;4880502;28;20338;-64
2022/05/24 05:49:42;;;;;;;4.55;2.10;;;16.90;85.30;;;15.73;100.00;95068.56;4902503;28;20501;-62
2022/05/24 05:52:09;;;;;;;4.30;2.30;;;16.90;85.40;;;15.72;100.00;95070.44;4901845;28;20367;-63
2022/05/24 05:54:35;;;;;;;7.20;2.50;;;16.90;85.30;;;15.73;100.00;95079.97;4902914;28;20369;-62
2022/05/24 05:57:01;;;;;;;3.50;2.20;;;17.00;85.50;;;15.75;100.00;95083.19;4909790;28;20299;-62
2022/05/24 05:59:27;;;;;;;4.55;2.58;;;17.10;85.30;;;15.80;100.00;95077.94;4903364;28;20354;-62
2022/05/24 06:01:58;;;;;;;5.82;2.30;;;17.10;85.10;;;15.83;100.00;95074.00;4905841;28;20655;-62
2022/05/24 06:04:25;;;;;;;5.00;2.75;;;17.20;84.80;;;15.83;100.00;95066.84;4909564;28;20478;-65
2022/05/24 06:06:52;;;;;;;5.57;2.03;;;17.10;84.80;;;15.89;100.00;95073.03;4906265;28;20373;-65
2022/05/24 06:09:19;;;;;;;5.43;2.50;;;17.30;84.60;;;15.93;100.00;95090.84;4891055;28;20370;-64
2022/05/24 06:11:45;;;;;;;3.95;2.17;;;17.30;84.30;;;15.92;100.00;95091.09;4918475;28;20355;-65
2022/05/24 06:14:11;;;;;;;3.88;2.28;;;17.30;84.50;;;15.99;100.00;95093.56;4907562;28;20563;-65
2022/05/24 06:16:37;;;;;;;3.20;2.38;;;17.50;84.40;;;16.05;100.00;95097.88;4902157;28;20310;-65
2022/05/24 06:19:05;;;;;;;5.88;2.30;;;17.50;84.40;;;16.11;100.00;95096.91;4893302;28;20481;-66
2022/05/24 06:21:34;;;;;;;5.45;2.25;;;17.60;84.10;;;16.13;100.00;95098.25;4922862;28;20328;-65
2022/05/24 06:24:05;;;;;;;4.63;2.28;;;17.60;84.20;;;16.19;100.00;95093.78;4906100;28;20512;-65
2022/05/24 06:26:31;;;;;;;4.07;2.65;;;17.70;83.90;;;16.22;100.00;95093.28;4890716;28;20328;-65
2022/05/24 06:28:57;;;;;;;5.50;2.97;;;17.70;83.80;;;16.27;100.00;95098.66;4890223;28;20351;-66
2022/05/24 06:31:24;;;;;;;4.22;2.20;;;17.80;83.80;;;16.31;100.00;95097.13;4906630;28;20343;-65
2022/05/24 06:33:50;;;;;;;4.63;2.38;;;17.80;83.60;;;16.35;100.00;95102.75;4891372;28;20547;-65
2022/05/24 06:36:16;;;;;;;3.30;2.38;;;17.80;83.20;;;16.42;100.00;95101.47;4921177;28;20891;-65
2022/05/24 06:38:42;;;;;;;4.10;2.08;;;18.00;83.20;;;16.50;100.00;95105.53;4925792;28;20555;-66
2022/05/24 06:41:08;;;;;;;4.80;2.50;;;18.20;82.70;;;16.57;100.00;95106.16;4928763;28;20443;-65
2022/05/24 06:43:34;;;;;;;4.53;2.00;;;18.10;82.80;;;16.63;99.38;95125.59;4910038;28;20370;-65
2022/05/24 06:46:07;;;;;;;3.50;2.38;;;18.20;82.30;;;16.67;99.09;95126.72;4875746;28;20352;-65
2022/05/24 06:48:38;;;;;;;4.45;1.90;;;18.10;82.30;;;16.63;97.02;95126.38;4880124;28;20491;-66
2022/05/24 06:51:16;;;;;;;4.10;1.70;;;18.10;81.40;;;16.68;97.12;95113.19;4871720;28;20441;-65
2022/05/24 06:53:43;;;;;;;2.67;1.52;;;18.10;81.70;;;16.68;96.87;95118.50;4886338;28;20593;-65
2022/05/24 06:56:10;;;;;;;5.07;2.00;;;18.00;80.60;;;16.67;96.08;95129.38;4868852;28;20299;-65
2022/05/24 06:58:36;;;;;;;5.18;1.90;;;18.00;81.40;;;16.67;95.81;95130.16;4884951;28;20480;-67
2022/05/24 07:03:49;;;;;;;2.75;1.80;;;18.00;81.70;;;16.63;95.46;95133.56;4893672;28;20328;-66
2022/05/24 07:06:15;;;;;;;3.47;1.65;;;17.90;81.30;;;16.64;95.19;95127.19;4897732;28;20358;-67
2022/05/24 07:08:43;;;;;;;4.05;1.70;;;18.00;81.20;;;16.69;95.90;95132.56;4904223;28;20366;-67
2022/05/24 07:11:10;;;;;;;4.40;1.80;;;18.20;81.50;;;16.74;95.52;95129.97;4886288;28;20389;-65
2022/05/24 07:13:36;;;;;;;2.90;1.75;;;18.30;80.20;;;16.75;95.00;95134.25;4880362;28;20374;-67
2022/05/24 07:16:03;;;;;;;3.53;1.80;;;18.20;80.70;;;16.76;94.66;95149.13;4884945;28;20941;-63
2022/05/24 07:18:29;;;;;;;3.25;1.70;;;18.20;80.60;;;16.80;94.78;95142.25;4902285;28;20583;-61
2022/05/24 07:20:55;;;;;;;2.95;1.70;;;18.20;80.60;;;16.82;94.61;95151.56;4906863;28;20529;-63
2022/05/24 07:23:25;;;;;;;3.20;2.03;;;18.10;80.50;;;16.83;94.25;95160.34;4905404;28;20461;-63
2022/05/24 07:25:52;;;;;;;2.97;1.70;;;18.20;80.20;;;16.80;93.88;95161.66;4888396;28;20321;-63
2022/05/24 07:28:19;;;;;;;4.32;2.03;;;18.10;80.50;;;16.75;93.41;95166.13;4878687;28;20503;-61
2022/05/24 07:30:48;;;;;;;3.70;2.08;;;17.90;80.60;;;16.74;93.66;95164.47;4911251;28;20536;-65
2022/05/24 07:33:16;;;;;;;3.45;2.00;;;18.00;80.80;;;16.69;93.88;95165.22;4886993;28;20262;-62
2022/05/24 07:35:42;;;;;;;5.85;2.38;;;17.90;81.40;;;16.62;93.88;95169.13;4911391;28;20360;-63
2022/05/24 07:38:09;;;;;;;3.40;2.13;;;17.70;81.60;;;16.58;94.74;95168.00;4899279;28;20370;-62
2022/05/24 07:46:11;;;;;;;9.73;7.22;;;17.60;81.60;;;16.41;94.79;95195.44;4894302;28;20359;-62
2022/05/24 07:48:37;;;;;;;7.13;2.90;;;17.60;82.20;;;16.35;95.13;95207.03;4907549;28;20476;-63
2022/05/24 07:51:04;;;;;;;6.13;3.05;;;17.50;82.40;;;16.28;94.63;95209.06;4888628;28;20382;-67
2022/05/24 07:53:30;;;;;;;6.53;5.28;;;17.30;82.80;;;16.22;94.87;95221.47;4900306;28;20406;-68
2022/05/24 07:55:57;;;;;;;4.05;2.92;;;17.30;83.10;;;16.19;96.50;95226.47;4906534;28;20493;-67
2022/05/24 07:58:23;;;;;;;3.35;1.77;;;17.30;83.30;;;16.12;95.92;95231.16;4885364;28;20350;-67
2022/05/24 08:00:49;;;;;;;4.28;2.08;;;17.20;83.60;;;16.02;95.83;95234.44;4904138;28;20385;-66
2022/05/24 08:03:16;;;;;;;3.25;1.90;;;17.10;83.70;;;15.96;96.53;95240.72;4888961;28;20403;-67
2022/05/24 08:05:42;;;;;;;4.47;2.13;;;17.00;84.00;;;15.86;97.21;95230.78;4910344;28;20416;-66
2022/05/24 08:08:08;;;;;;;6.22;2.00;;;16.80;84.30;;;15.81;97.21;95235.19;4903138;28;20203;-66
2022/05/24 08:10:36;;;;;;;5.05;1.92;;;16.80;84.20;;;15.76;98.05;95237.78;4920659;28;20284;-66
2022/05/24 08:13:10;;;;;;;5.47;1.90;;;16.80;84.50;;;15.72;98.64;95248.06;4888372;28;20453;-66
2022/05/24 08:15:36;;;;;;;3.25;1.63;;;16.90;84.50;;;15.70;97.95;95252.00;4904086;28;20339;-66
2022/05/24 08:18:03;;;;;;;2.42;1.80;;;16.90;83.80;;;15.70;98.45;95244.03;4892206;28;20358;-66
2022/05/24 08:20:30;;;;;;;3.17;1.60;;;17.00;84.30;;;15.70;98.26;95255.44;4921675;28;20579;-66
2022/05/24 08:22:57;;;;;;;3.40;1.70;;;17.00;84.00;;;15.70;98.71;95258.09;4928931;28;20063;-66
2022/05/24 08:25:24;;;;;;;4.32;1.60;;;17.00;83.90;;;15.71;97.94;95266.84;4900960;28;20484;-66
2022/05/24 08:27:50;;;;;;;3.75;1.42;;;16.90;83.50;;;15.67;99.03;95266.53;4889291;28;20481;-66
2022/05/24 08:30:17;;;;;;;4.30;1.73;;;16.90;84.10;;;15.69;99.30;95267.09;4919337;28;20327;-66
2022/05/24 08:32:43;;;;;;;1.90;1.48;;;17.00;84.20;;;15.74;99.54;95264.53;4903629;28;20361;-67
2022/05/24 08:35:11;;;;;;;2.45;1.60;;;17.10;83.30;;;15.79;98.28;95269.91;4928240;28;20049;-66
2022/05/24 08:37:38;;;;;;;2.75;1.77;;;17.30;83.10;;;15.88;98.17;95273.78;4942115;28;20610;-66
2022/05/24 08:40:06;;;;;;;2.63;1.63;;;17.50;82.10;;;15.96;97.26;95275.22;4931900;28;20585;-66
2022/05/24 08:42:50;;;;;;;3.50;1.70;;;17.60;81.70;;;16.11;98.22;95277.28;4914580;28;20557;-66
2022/05/24 08:48:23;;;;;;;4.63;1.30;;;18.00;82.10;;;16.35;97.62;95272.59;4886839;28;20549;-66
2022/05/24 08:51:13;;;;;;;2.83;1.67;;;18.10;80.50;;;16.49;96.22;95285.25;4923324;28;20042;-66
2022/05/24 08:53:46;;;;;;;2.53;1.63;;;18.20;80.00;;;16.53;95.79;95285.56;4953451;28;20152;-62
2022/05/24 08:56:30;;;;;;;3.70;1.60;;;18.10;80.60;;;16.50;94.13;95283.38;4953451;28;20049;-64
2022/05/24 08:59:09;;;;;;;5.45;1.95;;;17.90;79.70;;;16.51;94.08;95272.50;4895741;28;20605;-64
2022/05/24 09:01:35;;;;;;;2.65;1.40;;;17.90;80.00;;;16.57;93.92;95276.06;4909604;28;20326;-65
2022/05/24 09:04:06;;;;;;;4.30;1.52;;;18.10;80.20;;;16.62;93.80;95272.66;4911729;28;20536;-65
2022/05/24 09:06:43;;;;;;;2.60;1.20;;;18.20;79.10;;;16.71;93.75;95276.50;4865079;28;20435;-65
2022/05/24 09:10:01;;;;;;;2.85;1.20;;;18.40;79.20;;;16.80;91.63;95275.03;4926731;28;20442;-64
2022/05/24 09:13:04;;;;;;;3.70;1.17;;;18.40;78.10;;;16.74;90.78;95270.69;4954640;28;20041;-65
2022/05/24 09:15:41;;;;;;;4.32;1.05;;;18.10;77.80;;;16.71;90.72;95277.31;4928474;28;20258;-66
2022/05/24 09:18:12;;;;;;;2.03;1.20;;;18.10;78.40;;;16.63;89.16;95285.69;4912063;28;20868;-63
2022/05/24 09:20:42;;;;;;;;;;;17.80;76.90;;;16.58;89.97;95280.31;4922104;28;20251;-63
2022/05/24 09:23:41;;;;;;;2.88;1.13;;;17.90;78.30;;;16.57;90.58;95283.22;4917999;28;20528;-66
2022/05/24 09:26:12;;;;;;;2.15;0.90;;;17.90;78.80;;;16.54;90.60;95272.06;4920663;28;20415;-67
2022/05/24 09:28:46;;;;;;;2.33;1.30;;;18.00;78.80;;;16.56;90.86;95263.03;4913346;28;20369;-67
2022/05/24 09:31:36;;;;;;;2.47;1.02;;;18.00;78.50;;;16.53;88.86;95267.00;4903347;28;20393;-67
2022/05/24 09:34:27;;;;;;;6.43;2.50;;;17.90;77.10;;;16.52;89.34;95273.31;4882868;28;20295;-66
2022/05/24 09:36:55;;;;;;;4.95;4.45;;;17.90;77.80;;;16.51;89.82;95283.13;4891103;28;20556;-66
2022/05/24 09:39:35;;;;;;;2.67;1.30;;;18.00;78.70;;;16.46;89.93;95290.22;4894546;28;20415;-66
2022/05/24 09:42:05;;;;;;;1.75;1.13;;;17.70;78.20;;;16.44;90.31;95298.44;4915483;28;20345;-66
2022/05/24 09:44:50;;;;;;;3.10;1.47;;;17.80;78.80;;;16.46;89.93;95285.72;4881671;28;20315;-67
2022/05/24 09:47:41;;;;;;;3.13;1.13;;;18.00;78.00;;;16.53;91.19;95286.38;4902417;28;20321;-66
2022/05/24 09:50:31;;;;;;;2.30;1.40;;;18.30;78.10;;;16.59;88.96;95289.91;4900755;28;20525;-66
2022/05/24 09:53:03;;;;;;;3.85;1.15;;;18.30;76.60;;;16.61;89.58;95297.59;4899331;28;20370;-66
2022/05/24 09:55:47;;;;;;;3.58;1.38;;;18.10;77.90;;;16.63;89.29;95296.31;4915247;28;20560;-65
2022/05/24 09:58:40;;;;;;;2.90;1.20;;;18.10;76.90;;;16.64;88.77;95295.25;4898408;28;20347;-66
2022/05/24 10:01:13;;;;;;;3.38;1.30;;;18.10;77.10;;;16.60;89.64;95310.09;4943014;28;20378;-64
2022/05/24 10:03:44;;;;;;;3.28;1.17;;;17.90;78.20;;;16.51;89.26;95315.00;4922970;28;20371;-63
2022/05/24 10:06:13;;;;;;;4.93;1.50;;;17.80;78.40;;;16.43;89.04;95320.72;4898142;28;20207;-64
2022/05/24 10:08:45;;;;;;;1.92;1.13;;;17.60;78.70;;;16.33;88.56;95325.91;4962226;28;20211;-62
2022/05/24 10:11:49;;;;;;;9.50;1.83;;;17.40;78.50;;;16.21;89.47;95335.78;4913841;28;20339;-63
2022/05/24 10:14:43;;;;;;;2.40;1.58;;;17.30;79.20;;;16.15;89.53;95342.09;4906256;28;20347;-63
2022/05/24 10:17:48;;;;;;;3.45;1.88;;;17.40;79.40;;;16.09;91.25;95348.34;4913099;28;20354;-63
2022/05/24 10:20:49;;;;;;;3.38;1.60;;;17.30;80.20;;;16.01;90.64;95348.75;4915940;28;20323;-63
2022/05/24 10:23:40;;;;;;;2.75;1.38;;;17.30;79.70;;;15.96;90.04;95351.31;4917671;28;20751;-64
2022/05/24 10:26:26;;;;;;;2.88;1.13;;;17.30;79.00;;;16.00;90.83;95347.13;4923146;28;20363;-63
2022/05/24 10:29:17;;;;;;;3.55;1.45;;;17.60;78.80;;;16.09;91.35;95343.84;4926623;28;20422;-63
2022/05/24 10:32:02;;;;;;;3.63;1.50;;;17.70;79.10;;;16.16;90.71;95351.66;4910795;28;20279;-64
2022/05/24 10:41:21;;;;;;;2.90;1.30;;;18.60;76.30;;;16.83;89.71;95348.91;4926017;28;20357;-64
2022/05/24 10:44:43;;;;;;;4.13;1.20;;;19.40;74.10;;;17.38;88.16;95347.97;4900278;28;20620;-65
2022/05/24 10:47:28;;;;;;;3.33;1.25;;;20.10;71.80;;;17.75;88.25;95350.75;4886772;28;20485;-65
2022/05/24 10:50:10;;;;;;;3.42;1.10;;;20.60;71.10;;;18.02;84.43;95348.06;4906816;28;20366;-64
2022/05/24 10:52:52;;;;;;;2.25;1.30;;;20.50;69.30;;;18.17;82.13;95347.41;4905114;28;20406;-64
2022/05/24 10:55:28;;;;;;;2.15;1.10;;;20.30;68.40;;;18.24;81.38;95346.13;4916280;28;20731;-64
2022/05/24 10:58:04;;;;;;;3.20;1.20;;;20.20;68.60;;;18.26;82.33;95341.34;4888440;28;20402;-63
2022/05/24 11:00:43;;;;;;;2.45;1.38;;;20.10;70.30;;;18.36;81.43;95349.41;4903665;28;20355;-65
2022/05/24 11:03:33;;;;;;;3.20;1.23;;;20.20;69.70;;;18.25;80.78;95342.41;4896724;28;20728;-65
2022/05/24 11:06:10;;;;;;;2.55;1.40;;;19.80;69.90;;;18.22;81.21;95344.78;4847948;28;20330;-65